Time;durP1;ratioP1;P1;durP2;ratioP2;P2;SDS_P1;SDS_P2;PMS_P1;PMS_P2;Temp;Humidity;BMP_temperature;BMP_pressure;BME280_temperature;BME280_humidity;BME280_pressure;Samples;Min_cycle;Max_cycle;Signal;HPM_P1;HPM_P2
2022/05/26 00:01:52;;;;;;;4.15;1.33;;;;;;;13.22;75.06;96307.94;4984067;28;20037;-61
2022/05/26 00:04:17;;;;;;;2.03;1.20;;;;;;;13.11;75.03;96314.22;4979732;28;20053;-61
2022/05/26 00:06:43;;;;;;;1.13;1.10;;;;;;;13.11;75.49;96318.69;4982125;28;20031;-61
2022/05/26 00:09:08;;;;;;;2.38;1.30;;;;;;;12.97;76.86;96317.34;4980183;28;20583;-61
2022/05/26 00:11:37;;;;;;;1.67;1.02;;;;;;;12.88;76.95;96316.38;4984363;28;20031;-61
2022/05/26 00:14:08;;;;;;;5.97;1.33;;;;;;;12.90;76.90;96323.16;4988023;28;20098;-61
2022/05/26 00:16:41;;;;;;;2.55;1.15;;;;;;;12.90;77.35;96323.16;4983427;28;20035;-61
2022/05/26 00:19:08;;;;;;;1.88;1.17;;;;;;;12.86;77.13;96319.13;4980268;28;20033;-61
2022/05/26 00:21:34;;;;;;;4.40;1.27;;;;;;;12.85;77.32;96306.91;4981684;28;20026;-61
2022/05/26 00:23:59;;;;;;;1.23;1.15;;;;;;;12.79;78.17;96311.91;4983110;28;20931;-61
2022/05/26 00:26:25;;;;;;;1.77;1.30;;;;;;;12.76;77.92;96315.69;4983908;28;20039;-61
2022/05/26 00:28:51;;;;;;;1.40;1.10;;;;;;;12.70;78.69;96317.06;4984984;28;20478;-61
2022/05/26 00:31:17;;;;;;;1.25;1.05;;;;;;;12.68;79.33;96312.88;4992096;28;20026;-61
2022/05/26 00:33:43;;;;;;;4.60;1.30;;;;;;;12.66;78.44;96309.56;4988274;28;20402;-61
2022/05/26 00:36:12;;;;;;;4.03;1.30;;;;;;;12.67;78.42;96312.06;4984573;28;20019;-61
2022/05/26 00:38:38;;;;;;;1.30;1.15;;;;;;;12.71;78.06;96310.81;4986662;28;20035;-61
2022/05/26 00:41:07;;;;;;;1.92;1.27;;;;;;;12.71;78.20;96308.16;4989530;28;20478;-61
2022/05/26 00:43:33;;;;;;;1.13;1.13;;;;;;;12.69;77.58;96310.13;4986176;28;20450;-61
2022/05/26 00:46:09;;;;;;;5.38;1.30;;;;;;;12.61;77.92;96310.81;4983632;28;20030;-61
2022/05/26 00:48:46;;;;;;;2.45;1.40;;;;;;;12.57;77.47;96312.06;4991421;28;20030;-61
2022/05/26 00:51:12;;;;;;;1.60;1.30;;;;;;;12.54;77.28;96316.78;4983148;28;20098;-61
2022/05/26 00:53:46;;;;;;;2.35;1.25;;;;;;;12.48;78.00;96315.53;4984791;28;20023;-61
2022/05/26 00:56:22;;;;;;;1.48;1.38;;;;;;;12.44;78.80;96314.13;4984610;28;20027;-61
2022/05/26 00:58:52;;;;;;;1.35;1.10;;;;;;;12.41;78.95;96312.63;4977447;28;20031;-61
2022/05/26 01:01:18;;;;;;;1.15;1.05;;;;;;;12.43;79.34;96315.13;4985540;28;20121;-61
2022/05/26 01:03:59;;;;;;;4.65;1.20;;;;;;;12.36;80.36;96306.91;4984384;28;20105;-61
2022/05/26 01:06:31;;;;;;;1.65;1.52;;;;;;;12.34;80.23;96308.03;4973907;28;20022;-61
2022/05/26 01:08:59;;;;;;;1.60;1.50;;;;;;;12.30;80.69;96310.09;4973889;28;20034;-61
2022/05/26 01:11:27;;;;;;;1.20;1.20;;;;;;;12.23;81.46;96301.06;4973859;28;20173;-61
2022/05/26 01:13:59;;;;;;;5.53;1.20;;;;;;;12.15;80.87;96307.84;4991751;28;20037;-61
2022/05/26 01:16:33;;;;;;;2.92;1.00;;;;;;;12.15;81.55;96312.31;4993221;28;20026;-61
2022/05/26 01:19:23;;;;;;;2.37;1.40;;;;;;;12.06;81.94;96308.69;4993050;28;20030;-61
2022/05/26 01:21:58;;;;;;;2.22;1.30;;;;;;;12.05;81.83;96312.28;4992805;28;20587;-61
2022/05/26 01:24:32;;;;;;;1.20;1.13;;;;;;;12.05;81.79;96312.28;4992646;28;20018;-61
2022/05/26 01:27:08;;;;;;;2.70;1.30;;;;;;;12.00;81.75;96306.56;4992648;28;20037;-60
2022/05/26 01:29:39;;;;;;;9.63;1.60;;;;;;;11.93;82.31;96302.78;4992685;28;20038;-61
2022/05/26 01:32:23;;;;;;;2.47;1.30;;;;;;;11.82;83.16;96307.22;4992820;28;20503;-61
2022/05/26 01:35:19;;;;;;;5.45;1.10;;;;;;;11.84;82.42;96304.44;4992591;28;20029;-61
2022/05/26 01:38:18;;;;;;;6.35;1.73;;;;;;;11.85;82.47;96312.22;4992656;28;20026;-61
2022/05/26 01:40:43;;;;;;;1.40;1.30;;;;;;;11.86;81.69;96307.78;4992637;28;20080;-61
2022/05/26 01:43:14;;;;;;;1.30;1.20;;;;;;;11.86;81.66;96308.59;4992306;28;20105;-61
2022/05/26 01:46:21;;;;;;;1.98;1.30;;;;;;;11.86;82.34;96313.06;4992483;28;20030;-61
2022/05/26 01:49:08;;;;;;;1.30;1.30;;;;;;;11.82;82.00;96311.63;4954017;28;20410;-61
2022/05/26 01:51:43;;;;;;;4.93;1.40;;;;;;;11.78;82.42;96315.50;4992275;28;20088;-61
2022/05/26 01:54:14;;;;;;;1.65;1.27;;;;;;;11.72;82.46;96312.44;4992259;28;20070;-61
2022/05/26 01:56:52;;;;;;;3.50;1.25;;;;;;;11.69;82.16;96311.88;4992289;28;20031;-61
2022/05/26 01:59:50;;;;;;;2.33;1.27;;;;;;;11.60;83.92;96313.50;4992070;28;20030;-61
2022/05/26 02:02:22;;;;;;;1.42;1.33;;;;;;;11.53;84.20;96318.50;4976750;28;20445;-60
2022/05/26 02:04:54;;;;;;;1.48;1.05;;;;;;;11.50;83.77;96307.38;4992069;28;20065;-61
2022/05/26 02:07:46;;;;;;;1.25;1.20;;;;;;;11.41;84.66;96301.94;4992053;28;20088;-61
2022/05/26 02:10:31;;;;;;;4.10;1.30;;;;;;;11.39;84.93;96305.66;4992009;28;20097;-61
2022/05/26 02:13:07;;;;;;;1.35;1.27;;;;;;;11.35;85.36;96306.91;4992331;28;20037;-61
2022/05/26 02:15:46;;;;;;;1.33;1.20;;;;;;;11.30;86.07;96307.28;4991659;28;20023;-61
2022/05/26 02:18:24;;;;;;;1.83;1.27;;;;;;;11.32;85.40;96300.94;4972198;28;20057;-61
2022/05/26 02:20:54;;;;;;;4.97;1.50;;;;;;;11.26;87.51;96300.63;4986616;28;20057;-61
2022/05/26 02:23:31;;;;;;;3.50;1.60;;;;;;;11.23;86.76;96306.16;4991756;28;20062;-61
2022/05/26 02:25:59;;;;;;;1.67;1.58;;;;;;;11.25;86.13;96309.47;4992013;28;20125;-61
2022/05/26 02:28:24;;;;;;;1.80;1.20;;;;;;;11.22;85.86;96309.75;4991664;28;20034;-61
2022/05/26 02:30:51;;;;;;;1.60;1.08;;;;;;;11.18;86.24;96311.81;4991672;28;20380;-61
2022/05/26 02:33:18;;;;;;;1.20;1.20;;;;;;;11.20;86.03;96315.13;4991668;28;20478;-60
2022/05/26 02:35:48;;;;;;;1.38;1.33;;;;;;;11.16;86.17;96314.59;4991507;28;20018;-61
2022/05/26 02:38:22;;;;;;;3.38;1.38;;;;;;;11.08;86.79;96311.75;4991659;28;20030;-61
2022/05/26 02:40:48;;;;;;;1.23;1.23;;;;;;;11.01;87.37;96308.78;4991045;28;20029;-61
2022/05/26 02:43:18;;;;;;;1.70;1.60;;;;;;;10.98;87.14;96314.31;4991522;28;20034;-61
2022/05/26 02:45:55;;;;;;;2.78;2.15;;;;;;;10.97;87.38;96311.84;4991276;28;20030;-61
2022/05/26 02:49:09;;;;;;;3.53;1.40;;;;;;;10.95;87.17;96311.94;4990503;28;20422;-61
2022/05/26 02:52:10;;;;;;;1.35;1.27;;;;;;;10.92;87.46;96314.84;4912159;29;20636;-61
2022/05/26 02:54:49;;;;;;;1.75;1.30;;;;;;;10.93;87.03;96315.66;4909164;29;20115;-61
2022/05/26 02:57:35;;;;;;;1.33;1.30;;;;;;;10.88;87.06;96316.88;4980310;28;20042;-61
2022/05/26 03:00:44;;;;;;;1.23;1.13;;;;;;;10.88;87.86;96318.72;4991151;28;20514;-61
2022/05/26 03:03:18;;;;;;;1.55;1.45;;;;;;;10.80;88.62;96323.75;4950111;29;20027;-61
2022/05/26 03:06:04;;;;;;;5.63;1.30;;;;;;;10.75;88.31;96318.91;4984358;28;20041;-61
2022/05/26 03:08:36;;;;;;;1.50;1.40;;;;;;;10.71;88.35;96325.34;4991212;28;20113;-60
2022/05/26 03:11:16;;;;;;;4.57;1.63;;;;;;;10.71;88.69;96325.34;4991300;28;20026;-60
2022/05/26 03:13:42;;;;;;;1.42;1.33;;;;;;;10.64;90.39;96318.94;4990966;28;20031;-61
2022/05/26 03:16:08;;;;;;;1.75;1.40;;;;;;;10.59;89.65;96324.56;4990971;28;20022;-61
2022/05/26 03:18:34;;;;;;;3.05;1.60;;;;;;;10.54;90.11;96321.50;4990945;28;20034;-61
2022/05/26 03:21:01;;;;;;;6.45;1.48;;;;;;;10.52;89.15;96318.16;4990807;28;20028;-61
2022/05/26 03:23:26;;;;;;;1.58;1.50;;;;;;;10.50;89.06;96320.94;4990751;28;20494;-61
2022/05/26 03:25:55;;;;;;;1.50;1.40;;;;;;;10.45;89.88;96321.28;4989565;28;20026;-60
2022/05/26 03:28:20;;;;;;;4.45;1.25;;;;;;;10.40;90.72;96317.34;4990743;28;20068;-61
2022/05/26 03:30:45;;;;;;;3.15;1.48;;;;;;;10.39;89.91;96326.19;4990222;28;20084;-60
2022/05/26 03:33:11;;;;;;;3.63;1.70;;;;;;;10.44;89.46;96326.66;4990775;28;20030;-61
2022/05/26 03:40:46;;;;;;;1.15;1.15;;;;;;;10.40;90.30;96319.97;4990808;28;20181;-61
2022/05/26 03:41:13;;;;;;;7.03;1.60;;;;;;;10.39;90.61;96320.94;4990317;28;20031;-61
2022/05/26 03:43:46;;;;;;;1.42;1.40;;;;;;;10.43;90.17;96323.22;4990377;28;20030;-61
2022/05/26 03:46:12;;;;;;;4.82;1.35;;;;;;;10.45;89.81;96326.56;4990624;28;20041;-60
2022/05/26 03:48:38;;;;;;;4.80;1.52;;;;;;;10.43;90.53;96331.13;4990852;28;20035;-61
2022/05/26 03:51:05;;;;;;;1.95;1.50;;;;;;;10.44;90.31;96326.66;4989814;28;20026;-61
2022/05/26 03:53:33;;;;;;;1.23;1.23;;;;;;;10.50;89.51;96327.97;4990148;28;20506;-61
2022/05/26 03:55:59;;;;;;;1.83;1.73;;;;;;;10.46;89.72;96330.88;4988698;28;20486;-61
2022/05/26 03:58:24;;;;;;;1.85;1.40;;;;;;;10.40;90.36;96333.13;4990582;28;20034;-61
2022/05/26 04:00:50;;;;;;;1.63;1.52;;;;;;;10.40;90.28;96330.50;4994146;28;20046;-61
2022/05/26 04:03:16;;;;;;;1.42;1.38;;;;;;;10.39;90.12;96334.09;4994413;28;20034;-61
2022/05/26 04:05:41;;;;;;;2.90;1.17;;;;;;;10.29;91.40;96348.00;4994446;28;20034;-61
2022/05/26 04:08:07;;;;;;;1.50;1.40;;;;;;;10.27;91.87;96338.56;4994525;28;20489;-60
2022/05/26 04:10:33;;;;;;;1.40;1.40;;;;;;;10.32;91.68;96339.84;4994241;28;20027;-61
2022/05/26 04:12:58;;;;;;;4.45;1.30;;;;;;;10.27;92.41;96344.63;4994153;28;20377;-61
2022/05/26 04:15:24;;;;;;;3.80;1.55;;;;;;;10.25;92.08;96346.56;4994118;28;20026;-61
2022/05/26 04:17:49;;;;;;;1.70;1.60;;;;;;;10.28;91.79;96351.59;4993158;28;20113;-61
2022/05/26 04:20:19;;;;;;;1.40;1.40;;;;;;;10.26;91.37;96356.13;4993852;28;20479;-61
2022/05/26 04:22:44;;;;;;;3.58;1.80;;;;;;;10.26;91.46;96355.31;4975926;28;20019;-61
2022/05/26 04:25:10;;;;;;;1.88;1.45;;;;;;;10.28;92.07;96359.50;4992244;28;20034;-60
2022/05/26 04:27:36;;;;;;;7.80;6.50;;;;;;;10.29;92.50;96358.53;4987247;28;20026;-61
2022/05/26 04:30:05;;;;;;;5.97;2.75;;;;;;;10.30;92.08;96357.56;4993476;28;20058;-60
2022/05/26 04:32:30;;;;;;;2.55;2.28;;;;;;;10.32;92.27;96368.81;4986193;28;20023;-61
2022/05/26 04:34:56;;;;;;;2.25;1.73;;;;;;;10.35;92.08;96369.53;4990223;28;20379;-61
2022/05/26 04:37:25;;;;;;;1.75;1.63;;;;;;;10.36;91.43;96374.63;4987388;28;20106;-60
2022/05/26 04:39:55;;;;;;;1.73;1.63;;;;;;;10.38;91.84;96375.34;4989202;28;20027;-61
2022/05/26 04:42:21;;;;;;;3.72;1.42;;;;;;;10.34;92.04;96375.75;4993561;28;20026;-60
2022/05/26 04:44:47;;;;;;;2.38;1.60;;;;;;;10.32;92.75;96375.84;4993237;28;20033;-60
2022/05/26 04:47:13;;;;;;;1.58;1.50;;;;;;;10.36;91.96;96379.09;4986099;28;20030;-60
2022/05/26 04:49:39;;;;;;;6.55;1.60;;;;;;;10.40;92.17;96383.13;4989912;28;20088;-60
2022/05/26 04:52:07;;;;;;;1.73;1.60;;;;;;;10.44;92.02;96382.81;4990986;28;20026;-60
2022/05/26 04:54:32;;;;;;;3.97;1.40;;;;;;;10.44;92.25;96379.31;4987981;28;20463;-61
2022/05/26 04:56:59;;;;;;;1.50;1.40;;;;;;;10.51;91.46;96387.56;4991479;28;20057;-61
2022/05/26 04:59:25;;;;;;;2.60;1.33;;;;;;;10.57;91.84;96394.97;4993028;28;20058;-61
2022/05/26 05:01:50;;;;;;;6.22;1.30;;;;;;;10.54;92.44;96396.06;4993260;28;20034;-60
2022/05/26 05:04:16;;;;;;;1.58;1.48;;;;;;;10.61;92.26;96388.50;4993325;28;20022;-60
2022/05/26 05:06:41;;;;;;;3.72;1.50;;;;;;;10.72;91.19;96391.09;4993457;28;20031;-61
2022/05/26 05:09:06;;;;;;;3.85;1.42;;;;;;;10.74;91.66;96385.69;4992751;28;20097;-60
2022/05/26 05:11:32;;;;;;;1.35;1.35;;;;;;;10.83;91.07;96399.88;4992392;28;20081;-60
2022/05/26 05:14:02;;;;;;;1.42;1.33;;;;;;;10.99;90.08;96394.22;4993062;28;20034;-61
2022/05/26 05:16:31;;;;;;;1.25;1.25;;;;;;;11.15;89.80;96393.75;4993183;28;20069;-61
2022/05/26 05:18:57;;;;;;;1.95;1.45;;;;;;;11.29;89.29;96397.88;4992741;28;20041;-61
2022/05/26 05:21:46;;;;;;;1.52;1.42;;;;;;;11.36;89.38;96396.38;4992965;28;20034;-61
2022/05/26 05:24:23;;;;;;;1.40;1.30;;;;;;;11.46;88.67;96399.94;4987369;28;20049;-61
2022/05/26 05:26:54;;;;;;;3.15;1.70;;;;;;;11.55;89.06;96402.72;4992886;28;20030;-61
2022/05/26 05:29:23;;;;;;;1.80;1.40;;;;;;;11.64;87.74;96409.88;4992849;28;20595;-61
2022/05/26 05:31:55;;;;;;;2.35;1.40;;;;;;;11.75;86.88;96412.41;4992837;28;20073;-61
2022/05/26 05:34:27;;;;;;;2.38;1.30;;;;;;;11.89;85.71;96410.41;4992549;28;20023;-61
2022/05/26 05:36:53;;;;;;;2.80;1.30;;;;;;;12.01;85.00;96416.47;4992768;28;20014;-61
2022/05/26 05:39:19;;;;;;;1.90;1.33;;;;;;;12.10;84.40;96409.53;4992600;28;20068;-61
2022/05/26 05:41:44;;;;;;;1.40;1.30;;;;;;;12.23;83.75;96407.50;4992731;28;20034;-61
2022/05/26 05:44:10;;;;;;;1.98;1.30;;;;;;;12.38;83.15;96399.19;4992459;28;20341;-61
2022/05/26 05:46:53;;;;;;;1.45;1.35;;;;;;;12.53;83.66;96399.63;4992427;28;20027;-60
2022/05/26 05:49:22;;;;;;;3.45;1.35;;;;;;;12.67;81.37;96401.03;4992523;28;20038;-61
2022/05/26 05:51:48;;;;;;;3.55;1.52;;;;;;;12.85;81.33;96402.03;4992382;28;20031;-61
2022/05/26 05:54:13;;;;;;;3.30;1.55;;;;;;;13.02;79.78;96403.13;4992661;28;20038;-61
2022/05/26 05:56:39;;;;;;;1.58;1.48;;;;;;;13.18;79.34;96405.22;4992342;28;20108;-61
2022/05/26 05:59:05;;;;;;;4.70;2.20;;;;;;;13.37;78.49;96408.78;4991621;28;20481;-61
2022/05/26 06:01:31;;;;;;;1.48;1.38;;;;;;;13.37;77.41;96414.09;4992046;28;20022;-61
2022/05/26 06:03:56;;;;;;;1.33;1.13;;;;;;;13.40;77.70;96410.34;4992116;28;20026;-61
2022/05/26 06:06:22;;;;;;;3.08;1.40;;;;;;;13.54;77.25;96414.38;4992106;28;20613;-61
2022/05/26 06:08:47;;;;;;;1.58;1.30;;;;;;;13.75;76.49;96414.19;4992164;28;20027;-60
2022/05/26 06:11:13;;;;;;;1.25;1.15;;;;;;;13.88;75.04;96409.41;4988854;28;20026;-62
2022/05/26 06:13:38;;;;;;;1.23;1.13;;;;;;;14.05;74.71;96412.25;4986889;28;20105;-61
2022/05/26 06:16:04;;;;;;;1.20;1.20;;;;;;;14.31;73.21;96409.78;4991666;28;20029;-61
2022/05/26 06:18:31;;;;;;;4.85;1.55;;;;;;;14.54;74.47;96413.81;4991169;28;20034;-62
2022/05/26 06:21:06;;;;;;;3.42;1.60;;;;;;;14.80;71.52;96421.06;4991330;28;20030;-61
2022/05/26 06:23:32;;;;;;;1.02;1.02;;;;;;;15.08;71.78;96419.19;4990530;28;20099;-61
2022/05/26 06:25:58;;;;;;;1.67;1.40;;;;;;;15.27;70.10;96417.34;4991272;28;20057;-61
2022/05/26 06:31:09;;;;;;;1.33;1.25;;;;;;;15.78;69.73;96414.88;4986418;28;20037;-61
2022/05/26 06:39:03;;;;;;;2.55;1.40;;;;;;;17.00;63.08;96425.31;4991303;28;20041;-61
2022/05/26 06:44:14;;;;;;;1.00;1.00;;;;;;;18.00;59.16;96431.41;4991748;28;20037;-61
2022/05/26 06:46:39;;;;;;;2.25;1.48;;;;;;;18.18;57.47;96427.72;4978275;28;20038;-61
2022/05/26 06:49:06;;;;;;;1.20;1.10;;;;;;;18.50;57.08;96435.78;4971962;28;20034;-61
2022/05/26 06:51:31;;;;;;;1.17;1.10;;;;;;;18.73;57.19;96435.84;4971784;28;20037;-62
2022/05/26 06:53:57;;;;;;;1.65;1.10;;;;;;;19.17;55.15;96440.59;4971654;28;20445;-62
2022/05/26 06:56:29;;;;;;;1.20;1.10;;;;;;;19.05;54.20;96436.66;5128115;27;20390;-61
2022/05/26 06:58:54;;;;;;;1.17;1.05;;;;;;;18.72;53.94;96445.66;5128115;28;20027;-61
2022/05/26 07:01:20;;;;;;;1.48;1.02;;;;;;;18.90;53.93;96442.75;5128626;28;20053;-60
2022/05/26 07:03:46;;;;;;;2.17;1.02;;;;;;;19.22;52.69;96441.91;5128209;28;20082;-61
2022/05/26 07:06:17;;;;;;;1.77;1.00;;;;;;;19.63;48.58;96443.38;5128366;28;20023;-61
2022/05/26 07:08:44;;;;;;;1.30;1.00;;;;;;;19.88;50.41;96442.13;5128120;28;20070;-60
2022/05/26 07:11:10;;;;;;;2.78;1.10;;;;;;;19.96;49.48;96435.09;5128098;28;20047;-61
2022/05/26 07:13:35;;;;;;;3.00;0.80;;;;;;;20.25;46.75;96438.78;5109427;28;20528;-61
2022/05/26 07:16:01;;;;;;;0.80;0.80;;;;;;;20.44;46.80;96426.69;5129361;27;20027;-61
2022/05/26 07:18:27;;;;;;;4.20;0.95;;;;;;;20.67;45.72;96429.25;5112260;28;20028;-61
2022/05/26 07:20:52;;;;;;;1.17;0.80;;;;;;;20.91;46.86;96431.81;5109430;28;20036;-60
2022/05/26 07:23:17;;;;;;;2.38;0.90;;;;;;;19.87;47.50;96434.31;5110077;28;20051;-61
2022/05/26 07:25:43;;;;;;;0.88;0.80;;;;;;;19.58;49.24;96438.63;5114065;28;20055;-60
2022/05/26 07:28:12;;;;;;;0.75;0.75;;;;;;;18.87;50.07;96434.25;5117506;28;20024;-60
2022/05/26 07:30:38;;;;;;;0.85;0.80;;;;;;;19.13;48.94;96436.63;5111302;28;20020;-59
2022/05/26 07:33:04;;;;;;;2.80;0.80;;;;;;;18.89;51.16;96446.41;5112000;28;20085;-59
2022/05/26 07:35:30;;;;;;;2.03;1.05;;;;;;;18.80;49.71;96431.47;5127242;28;20031;-61
2022/05/26 07:43:25;;;;;;;;;;;;;;;19.53;50.43;96433.81;5127921;27;20034;-59
2022/05/26 07:45:50;;;;;;;1.55;1.17;;;;;;;19.75;48.47;96429.41;5120655;28;19912;-59
2022/05/26 07:48:16;;;;;;;0.90;0.73;;;;;;;19.08;50.28;96436.31;5126649;28;20033;-59
2022/05/26 07:50:41;;;;;;;1.65;1.00;;;;;;;18.88;50.12;96435.91;5126574;28;20035;-61
2022/05/26 07:53:07;;;;;;;0.77;0.70;;;;;;;19.10;49.59;96441.47;5121993;28;20030;-60
2022/05/26 07:55:34;;;;;;;0.85;0.85;;;;;;;18.85;51.72;96442.41;5125711;28;20051;-61
2022/05/26 07:57:59;;;;;;;0.70;0.70;;;;;;;18.75;51.70;96447.97;5112183;28;20673;-61
2022/05/26 08:00:25;;;;;;;1.85;0.88;;;;;;;18.53;51.54;96444.28;5123838;28;20039;-61
2022/05/26 08:02:50;;;;;;;1.33;1.23;;;;;;;18.12;52.76;96439.09;5126653;28;20027;-61
2022/05/26 08:05:16;;;;;;;3.30;1.00;;;;;;;17.82;53.63;96450.28;5126269;28;20036;-61
2022/05/26 08:07:43;;;;;;;0.90;0.90;;;;;;;17.77;55.19;96452.63;5092322;28;20024;-61
2022/05/26 08:10:10;;;;;;;0.75;0.75;;;;;;;18.28;53.98;96455.03;5109818;28;20020;-60
2022/05/26 08:12:35;;;;;;;2.20;0.88;;;;;;;19.13;51.48;96451.78;5105067;28;20028;-61
2022/05/26 08:15:01;;;;;;;1.98;0.90;;;;;;;19.65;47.85;96444.88;5110931;28;20024;-61
2022/05/26 08:17:26;;;;;;;1.10;0.88;;;;;;;19.68;48.95;96449.03;5113213;28;20136;-61
2022/05/26 08:19:52;;;;;;;1.15;0.95;;;;;;;19.95;47.09;96452.97;5113061;28;20474;-61
2022/05/26 08:22:18;;;;;;;1.77;0.73;;;;;;;20.68;46.66;96454.16;5112944;28;20475;-61
2022/05/26 08:24:54;;;;;;;1.42;1.08;;;;;;;20.64;45.69;96447.50;5112634;28;20084;-61
2022/05/26 08:27:19;;;;;;;0.80;0.80;;;;;;;20.20;48.11;96442.00;5112945;28;20048;-60
2022/05/26 08:29:45;;;;;;;2.22;1.08;;;;;;;20.35;46.12;96450.06;5112773;28;20054;-61
2022/05/26 08:32:10;;;;;;;1.40;0.88;;;;;;;20.10;46.72;96460.19;5112667;28;20024;-61
2022/05/26 08:34:36;;;;;;;3.20;1.00;;;;;;;19.73;48.78;96457.34;5112594;28;20020;-61
2022/05/26 08:37:03;;;;;;;2.22;1.00;;;;;;;19.82;46.56;96456.22;5112687;28;20059;-61
2022/05/26 08:39:31;;;;;;;4.22;0.60;;;;;;;19.77;48.60;96445.28;5112831;28;20031;-61
2022/05/26 08:41:57;;;;;;;0.88;0.85;;;;;;;20.30;46.08;96447.91;5112801;28;20023;-61
2022/05/26 08:44:28;;;;;;;2.45;1.08;;;;;;;21.07;43.26;96447.59;5112520;28;20032;-61
2022/05/26 08:47:01;;;;;;;4.85;1.83;;;;;;;21.53;42.83;96450.94;5112490;28;20068;-61
2022/05/26 08:49:38;;;;;;;2.00;0.80;;;;;;;21.29;43.15;96451.16;5112739;28;20020;-60
2022/05/26 08:52:13;;;;;;;0.95;0.68;;;;;;;21.63;42.58;96447.91;5112265;28;20401;-61
2022/05/26 08:55:01;;;;;;;0.98;0.98;;;;;;;22.08;44.23;96447.66;5112244;28;20039;-61
2022/05/26 08:57:38;;;;;;;4.00;1.10;;;;;;;22.44;41.64;96455.50;5112318;28;20058;-61
2022/05/26 09:00:05;;;;;;;1.30;0.80;;;;;;;22.84;39.50;96451.38;5112264;28;20027;-61
2022/05/26 09:02:36;;;;;;;0.70;0.70;;;;;;;22.79;39.63;96453.84;5112483;28;20024;-61
2022/05/26 09:05:13;;;;;;;0.65;0.65;;;;;;;22.95;40.02;96448.09;5112404;28;20054;-61
2022/05/26 09:13:17;;;;;;;0.80;0.80;;;;;;;22.50;39.04;96459.28;5112371;28;20132;-60
2022/05/26 09:15:43;;;;;;;2.13;0.65;;;;;;;22.63;39.30;96463.88;5111920;28;20110;-60
2022/05/26 09:18:17;;;;;;;1.20;0.77;;;;;;;22.85;38.84;96461.91;5110961;28;20016;-61
2022/05/26 09:20:45;;;;;;;3.75;0.90;;;;;;;22.95;37.81;96463.38;5111866;28;20030;-60
2022/05/26 09:23:33;;;;;;;0.63;0.63;;;;;;;23.55;36.62;96454.66;5111708;28;20509;-60
2022/05/26 09:26:02;;;;;;;2.63;0.95;;;;;;;23.38;38.73;96454.22;5111879;28;20088;-61
2022/05/26 09:28:30;;;;;;;2.90;0.90;;;;;;;24.01;39.08;96444.91;5091889;27;20031;-61
2022/05/26 09:30:56;;;;;;;0.85;0.70;;;;;;;24.63;37.82;96446.44;5070263;28;20036;-60
2022/05/26 09:33:31;;;;;;;2.85;1.10;;;;;;;24.84;36.02;96451.53;5090389;28;20111;-60
2022/05/26 09:36:28;;;;;;;1.65;0.98;;;;;;;24.83;36.26;96449.91;5090488;28;20028;-60
2022/05/26 09:38:53;;;;;;;1.13;0.90;;;;;;;25.30;36.06;96454.19;5062891;28;20053;-60
2022/05/26 09:41:19;;;;;;;1.65;0.90;;;;;;;25.16;36.02;96457.00;5091089;28;20429;-60
2022/05/26 09:43:48;;;;;;;1.02;1.00;;;;;;;25.17;37.70;96452.41;5072954;28;20028;-60
2022/05/26 09:46:16;;;;;;;1.00;0.90;;;;;;;25.25;36.27;96459.41;5091069;28;20023;-60
2022/05/26 09:48:45;;;;;;;5.30;0.90;;;;;;;25.00;35.59;96446.72;5091148;28;20035;-61
2022/05/26 09:51:24;;;;;;;2.17;0.85;;;;;;;25.26;35.15;96451.13;5090845;28;20031;-61
2022/05/26 09:53:52;;;;;;;1.13;0.75;;;;;;;25.44;34.67;96449.56;5071927;28;20035;-61
2022/05/26 09:56:38;;;;;;;2.70;1.00;;;;;;;24.28;38.08;96453.78;5090692;28;20488;-61
2022/05/26 09:59:40;;;;;;;0.70;0.70;;;;;;;23.40;38.74;96463.72;5091025;28;20028;-60
2022/05/26 10:02:17;;;;;;;3.03;0.70;;;;;;;22.63;41.61;96461.22;5015109;28;20043;-60
2022/05/26 10:05:05;;;;;;;0.70;0.70;;;;;;;22.25;41.10;96461.59;5103026;28;20054;-60
2022/05/26 10:07:52;;;;;;;1.50;0.85;;;;;;;21.98;43.14;96456.88;5092998;28;20035;-60
2022/05/26 10:10:31;;;;;;;0.93;0.80;;;;;;;22.10;43.54;96467.06;5110942;28;20024;-60
2022/05/26 10:13:10;;;;;;;0.93;0.85;;;;;;;22.63;42.09;96471.09;5111024;28;20027;-60
2022/05/26 10:15:58;;;;;;;0.93;0.80;;;;;;;22.17;42.14;96463.41;5110989;28;20106;-60
2022/05/26 10:18:23;;;;;;;2.33;0.52;;;;;;;21.84;42.96;96473.91;5110998;28;20554;-60
2022/05/26 10:20:59;;;;;;;2.15;1.15;;;;;;;21.46;44.69;96467.78;5110906;28;20102;-60
2022/05/26 10:24:00;;;;;;;1.90;1.00;;;;;;;21.98;42.75;96462.22;5110645;28;20030;-60
2022/05/26 10:26:30;;;;;;;2.15;1.10;;;;;;;21.99;43.19;96471.13;5110771;28;20439;-60
2022/05/26 10:29:32;;;;;;;1.35;1.00;;;;;;;21.99;44.18;96463.88;5110461;28;20027;-60
2022/05/26 10:32:26;;;;;;;1.98;1.00;;;;;;;22.89;42.10;96471.22;5110632;28;20061;-60
2022/05/26 10:35:18;;;;;;;0.80;0.80;;;;;;;23.06;40.95;96461.97;5110347;28;20486;-60
2022/05/26 10:38:21;;;;;;;6.25;1.10;;;;;;;22.72;41.14;96459.19;5110554;28;20038;-60
2022/05/26 10:41:05;;;;;;;1.35;1.02;;;;;;;23.13;39.70;96460.97;5110536;28;20544;-61
2022/05/26 10:44:14;;;;;;;1.67;1.00;;;;;;;22.65;42.30;96464.50;5110619;28;20032;-60
2022/05/26 10:46:50;;;;;;;0.90;0.90;;;;;;;22.22;42.57;96457.47;5027826;28;20706;-61
2022/05/26 10:49:30;;;;;;;1.95;0.90;;;;;;;22.10;43.15;96453.66;5085738;28;20429;-60
2022/05/26 10:52:02;;;;;;;1.08;0.90;;;;;;;21.95;42.78;96446.53;5110409;28;20106;-61
2022/05/26 10:54:48;;;;;;;3.40;1.00;;;;;;;22.08;43.60;96447.66;5110187;28;20048;-60
2022/05/26 10:57:25;;;;;;;4.35;1.00;;;;;;;22.09;43.79;96449.31;5110286;28;20059;-60
2022/05/26 11:00:00;;;;;;;1.02;1.00;;;;;;;21.98;43.14;96443.47;5110404;28;20139;-60
2022/05/26 11:02:35;;;;;;;1.75;1.00;;;;;;;22.42;43.06;96449.53;5103900;28;20063;-60
2022/05/26 11:05:13;;;;;;;1.30;0.85;;;;;;;22.15;44.01;96444.00;5090073;28;20701;-60
2022/05/26 11:07:47;;;;;;;0.93;0.65;;;;;;;22.29;42.17;96439.56;5090079;28;20028;-60
2022/05/26 11:10:22;;;;;;;1.80;0.90;;;;;;;22.52;42.33;96443.81;5088933;28;20556;-60
2022/05/26 11:12:53;;;;;;;;;;;;;;;22.50;43.99;96440.50;5090235;28;20545;-60
2022/05/26 11:18:22;;;;;;;1.17;1.02;;;;;;;22.82;41.95;96427.41;5090297;28;20422;-60
2022/05/26 11:20:57;;;;;;;1.40;1.00;;;;;;;22.86;42.22;96425.97;5088507;28;20503;-60
2022/05/26 11:23:26;;;;;;;1.80;1.13;;;;;;;22.91;41.73;96425.38;5106333;28;20020;-60
2022/05/26 11:26:00;;;;;;;2.03;1.00;;;;;;;23.04;41.54;96424.56;5110033;28;20184;-60
2022/05/26 11:28:40;;;;;;;1.20;1.10;;;;;;;23.25;41.78;96423.63;5105331;28;20107;-60
2022/05/26 11:37:19;;;;;;;1.42;1.00;;;;;;;22.88;42.37;96415.88;5088777;28;20053;-60
2022/05/26 11:39:50;;;;;;;0.85;0.85;;;;;;;23.31;42.22;96412.06;5091941;28;20025;-60
2022/05/26 11:42:30;;;;;;;2.00;1.00;;;;;;;23.61;41.72;96408.94;5098186;28;20533;-60
2022/05/26 11:45:07;;;;;;;2.85;0.85;;;;;;;23.27;40.78;96409.97;5102680;28;20383;-60
2022/05/26 11:48:03;;;;;;;3.50;1.40;;;;;;;23.32;41.51;96402.97;5110678;28;20363;-60
2022/05/26 11:50:46;;;;;;;2.25;1.30;;;;;;;23.42;39.73;96393.66;5110791;28;20102;-59
2022/05/26 11:53:34;;;;;;;1.15;0.80;;;;;;;23.11;42.01;96393.22;5109892;28;20069;-60
2022/05/26 11:56:04;;;;;;;2.33;0.70;;;;;;;22.93;40.28;96395.66;5098768;28;20113;-59
2022/05/26 11:58:42;;;;;;;1.95;0.70;;;;;;;22.93;40.58;96390.28;5094203;28;20019;-59
2022/05/26 12:01:13;;;;;;;0.80;0.80;;;;;;;22.96;42.27;96390.69;5104645;28;20035;-59
2022/05/26 12:04:25;;;;;;;2.22;0.98;;;;;;;23.06;41.52;96384.13;5104316;28;20070;-59
2022/05/26 12:07:05;;;;;;;1.20;1.10;;;;;;;23.38;41.72;96376.31;5097744;28;20103;-59
2022/05/26 12:09:41;;;;;;;4.03;0.93;;;;;;;23.50;42.18;96374.66;5098886;28;20016;-60
2022/05/26 12:12:21;;;;;;;1.35;1.25;;;;;;;23.58;41.19;96371.75;5104096;28;20069;-60
2022/05/26 12:14:47;;;;;;;1.30;0.80;;;;;;;23.72;41.79;96369.88;5104353;28;20031;-59
2022/05/26 12:17:30;;;;;;;1.77;0.88;;;;;;;23.71;41.12;96359.34;5104735;28;20027;-60
2022/05/26 12:20:24;;;;;;;0.73;0.73;;;;;;;23.72;41.38;96363.69;5108714;28;20051;-59
2022/05/26 12:22:50;;;;;;;2.97;0.90;;;;;;;24.06;40.64;96359.06;5095532;28;20035;-60
2022/05/26 12:25:33;;;;;;;1.57;0.90;;;;;;;23.63;39.51;96359.53;5103377;28;20099;-60
2022/05/26 12:28:10;;;;;;;0.88;0.88;;;;;;;23.55;39.85;96361.41;5111460;28;20267;-59
2022/05/26 12:30:44;;;;;;;0.80;0.80;;;;;;;23.41;41.71;96365.13;5111389;28;20088;-59
2022/05/26 12:33:19;;;;;;;0.82;0.82;;;;;;;23.45;40.91;96361.03;5111061;28;20030;-60